Terminal Aerodrome Forecast
Issued by NWS

Home | Current Version | Previous Version | Graphics & Text | Print | Product List | Glossary On
Versions: 1 2 3 4 5 6 7 8 9 10 11 12 13 14 15 16 17
000
FTUS43 KICT 231100
TAFRSL
TAF
KRSL 231125Z 2312/2412 05007KT P6SM VCTS SCT015 SCT080CB OVC250
      TEMPO 2312/2314 VRB15G30KT 5SM -TSRA BKN015 BKN080CB
     FM231500 09007KT P6SM SCT250
     FM240200 13005KT P6SM SCT250
     FM241000 15010KT P6SM SCT250=

USA.gov is the U.S. government's official web portal to all federal, state and local government web resources and services.